BAW491 LXGB-EGLL
Flight info
| Callsign | BAW491 |
|---|---|
| Flight time | 2h 29m |
| Altitude | 36000 |
| Route | DCT PIMOS N869 BLN N865 VTB N867 NENEM/N0437F340 DCT PEXOD DCT YURZI UL14 TEPRA UN867 MOKOR UP87 ROXOG ROXOG1H |
| Aircraft | A320/M-SDE3FGIJ1KRWXY/SB1 |
Departure
| Time | 2026-05-06 10:35 |
|---|---|
| Airport | Gibraltar Airport (LXGB) |
Arrival
| Time | 2026-05-06 13:04 |
|---|---|
| Airport | London Heathrow Airport (EGLL) |
| Time | Latitude | Longitude | Altitude | Speed | Heading |
|---|---|---|---|---|---|
| 2026-05-06 09:48 | 36.15305 | -5.34629 | 18 ft | 0 kts | 356° |
| 2026-05-06 10:22 | 36.15304 | -5.34629 | 18 ft | 0 kts | 357° |
| 2026-05-06 10:24 | 36.15284 | -5.34627 | 18 ft | 4 kts | 357° |
| 2026-05-06 10:25 | 36.15262 | -5.34626 | 18 ft | 4 kts | 1° |
| 2026-05-06 10:25 | 36.15237 | -5.34632 | 20 ft | 4 kts | 36° |
| 2026-05-06 10:25 | 36.15226 | -5.34654 | 20 ft | 3 kts | 87° |
| 2026-05-06 10:25 | 36.15225 | -5.34676 | 21 ft | 0 kts | 87° |
| 2026-05-06 10:31 | 36.15225 | -5.34665 | 21 ft | 2 kts | 87° |
| 2026-05-06 10:31 | 36.15227 | -5.34621 | 18 ft | 8 kts | 88° |
| 2026-05-06 10:31 | 36.15230 | -5.34534 | 18 ft | 12 kts | 88° |
| 2026-05-06 10:31 | 36.15233 | -5.34437 | 18 ft | 11 kts | 88° |
| 2026-05-06 10:32 | 36.15236 | -5.34340 | 18 ft | 11 kts | 87° |
| 2026-05-06 10:32 | 36.15239 | -5.34261 | 18 ft | 5 kts | 96° |
| 2026-05-06 10:32 | 36.15204 | -5.34234 | 17 ft | 8 kts | 172° |
| 2026-05-06 10:32 | 36.15147 | -5.34198 | 16 ft | 11 kts | 112° |
| 2026-05-06 10:33 | 36.15160 | -5.34109 | 17 ft | 10 kts | 64° |
| 2026-05-06 10:33 | 36.15179 | -5.34047 | 16 ft | 7 kts | 91° |
| 2026-05-06 10:33 | 36.15161 | -5.34025 | 17 ft | 1 kts | 186° |
| 2026-05-06 10:33 | 36.15149 | -5.34037 | 16 ft | 2 kts | 245° |
| 2026-05-06 10:34 | 36.15150 | -5.34045 | 16 ft | 0 kts | 267° |
| 2026-05-06 10:34 | 36.15150 | -5.34046 | 16 ft | 2 kts | 267° |
| 2026-05-06 10:34 | 36.15136 | -5.34391 | 16 ft | 82 kts | 267° |
| 2026-05-06 10:35 | 36.15099 | -5.35380 | 29 ft | 144 kts | 264° |
| 2026-05-06 10:35 | 36.15043 | -5.36654 | 628 ft | 149 kts | 258° |
| 2026-05-06 10:35 | 36.14562 | -5.37766 | 1347 ft | 153 kts | 221° |
| 2026-05-06 10:35 | 36.13542 | -5.38228 | 1846 ft | 167 kts | 184° |
| 2026-05-06 10:36 | 36.12332 | -5.37894 | 2135 ft | 192 kts | 158° |
| 2026-05-06 10:36 | 36.11181 | -5.36874 | 2417 ft | 220 kts | 134° |
| 2026-05-06 10:36 | 36.10395 | -5.35144 | 2697 ft | 248 kts | 105° |
| 2026-05-06 10:36 | 36.10179 | -5.32978 | 3317 ft | 261 kts | 88° |
| 2026-05-06 10:37 | 36.10316 | -5.30691 | 4017 ft | 271 kts | 82° |
| 2026-05-06 10:37 | 36.10578 | -5.28367 | 4944 ft | 273 kts | 79° |
| 2026-05-06 10:37 | 36.10880 | -5.26024 | 5856 ft | 276 kts | 79° |
| 2026-05-06 10:37 | 36.11188 | -5.23659 | 6712 ft | 280 kts | 80° |
| 2026-05-06 10:38 | 36.11488 | -5.21258 | 7499 ft | 285 kts | 81° |
| 2026-05-06 10:38 | 36.11776 | -5.18842 | 8276 ft | 291 kts | 82° |
| 2026-05-06 10:38 | 36.12062 | -5.16343 | 9061 ft | 296 kts | 82° |
| 2026-05-06 10:38 | 36.12347 | -5.13807 | 9851 ft | 300 kts | 82° |
| 2026-05-06 10:39 | 36.12635 | -5.11206 | 10323 ft | 315 kts | 82° |
| 2026-05-06 10:39 | 36.12943 | -5.08419 | 10519 ft | 339 kts | 82° |
| 2026-05-06 10:39 | 36.13269 | -5.05457 | 10895 ft | 353 kts | 82° |
| 2026-05-06 10:39 | 36.13600 | -5.02429 | 11533 ft | 358 kts | 82° |
| 2026-05-06 10:40 | 36.13937 | -4.99360 | 12207 ft | 362 kts | 82° |
| 2026-05-06 10:40 | 36.14278 | -4.96260 | 12896 ft | 366 kts | 82° |
| 2026-05-06 10:40 | 36.14869 | -4.93184 | 13551 ft | 370 kts | 70° |
| 2026-05-06 10:40 | 36.15992 | -4.90298 | 14100 ft | 375 kts | 56° |
| 2026-05-06 10:41 | 36.17615 | -4.87775 | 14667 ft | 377 kts | 43° |
| 2026-05-06 10:41 | 36.19658 | -4.85743 | 15231 ft | 378 kts | 31° |
| 2026-05-06 10:41 | 36.21899 | -4.84004 | 15807 ft | 382 kts | 30° |
| 2026-05-06 10:41 | 36.24160 | -4.82241 | 16374 ft | 386 kts | 30° |
| 2026-05-06 10:42 | 36.26413 | -4.80474 | 16921 ft | 390 kts | 30° |
| 2026-05-06 10:42 | 36.28713 | -4.78667 | 17485 ft | 394 kts | 30° |
| 2026-05-06 10:42 | 36.31040 | -4.76837 | 18049 ft | 398 kts | 30° |
| 2026-05-06 10:42 | 36.33388 | -4.74989 | 18590 ft | 402 kts | 30° |
| 2026-05-06 10:43 | 36.35762 | -4.73119 | 19097 ft | 406 kts | 30° |
| 2026-05-06 10:43 | 36.38168 | -4.71227 | 19605 ft | 411 kts | 30° |
| 2026-05-06 10:43 | 36.40597 | -4.69313 | 20123 ft | 415 kts | 30° |
| 2026-05-06 10:44 | 36.45517 | -4.65440 | 21164 ft | 423 kts | 29° |
| 2026-05-06 10:44 | 36.48016 | -4.63474 | 21651 ft | 427 kts | 29° |
| 2026-05-06 10:44 | 36.50537 | -4.61488 | 22125 ft | 431 kts | 29° |
| 2026-05-06 10:44 | 36.53048 | -4.59503 | 22585 ft | 435 kts | 29° |
| 2026-05-06 10:45 | 36.55612 | -4.57473 | 23044 ft | 439 kts | 29° |
| 2026-05-06 10:45 | 36.58203 | -4.55419 | 23466 ft | 443 kts | 29° |
| 2026-05-06 10:45 | 36.60816 | -4.53349 | 23847 ft | 447 kts | 29° |
| 2026-05-06 10:45 | 36.63453 | -4.51262 | 24232 ft | 450 kts | 29° |
| 2026-05-06 10:46 | 36.66075 | -4.49188 | 24616 ft | 453 kts | 28° |
| 2026-05-06 10:46 | 36.68774 | -4.47047 | 25021 ft | 455 kts | 29° |
| 2026-05-06 10:46 | 36.71412 | -4.44947 | 25395 ft | 458 kts | 29° |
| 2026-05-06 10:46 | 36.74107 | -4.42803 | 25769 ft | 460 kts | 28° |
| 2026-05-06 10:47 | 36.76820 | -4.40646 | 26130 ft | 463 kts | 28° |
| 2026-05-06 10:47 | 36.79544 | -4.38482 | 26502 ft | 465 kts | 28° |
| 2026-05-06 10:47 | 36.82353 | -4.36480 | 26871 ft | 464 kts | 21° |
| 2026-05-06 10:47 | 36.85301 | -4.34848 | 27237 ft | 465 kts | 19° |
| 2026-05-06 10:48 | 36.88279 | -4.33226 | 27571 ft | 468 kts | 19° |
| 2026-05-06 10:48 | 36.91268 | -4.31599 | 27940 ft | 469 kts | 19° |
| 2026-05-06 10:48 | 36.94271 | -4.29961 | 28298 ft | 472 kts | 19° |
| 2026-05-06 10:48 | 36.97291 | -4.28308 | 28619 ft | 475 kts | 19° |
| 2026-05-06 10:49 | 37.00323 | -4.26644 | 28967 ft | 477 kts | 19° |
| 2026-05-06 10:49 | 37.03370 | -4.24968 | 29292 ft | 480 kts | 19° |
| 2026-05-06 10:49 | 37.06390 | -4.23302 | 29613 ft | 482 kts | 19° |
| 2026-05-06 10:49 | 37.09464 | -4.21604 | 30033 ft | 482 kts | 19° |
| 2026-05-06 10:50 | 37.12531 | -4.19910 | 30456 ft | 481 kts | 19° |
| 2026-05-06 10:50 | 37.15596 | -4.18221 | 30869 ft | 481 kts | 19° |
| 2026-05-06 10:50 | 37.18659 | -4.16532 | 31280 ft | 481 kts | 18° |
| 2026-05-06 10:50 | 37.21721 | -4.14839 | 31671 ft | 481 kts | 18° |
| 2026-05-06 10:51 | 37.24790 | -4.13141 | 32058 ft | 481 kts | 18° |
| 2026-05-06 10:51 | 37.27848 | -4.11451 | 32438 ft | 481 kts | 18° |
| 2026-05-06 10:51 | 37.30914 | -4.09759 | 32813 ft | 481 kts | 18° |
| 2026-05-06 10:51 | 37.33974 | -4.08068 | 33211 ft | 480 kts | 18° |
| 2026-05-06 10:52 | 37.37032 | -4.06376 | 33601 ft | 480 kts | 18° |
| 2026-05-06 10:52 | 37.40091 | -4.04681 | 33996 ft | 480 kts | 18° |
| 2026-05-06 10:52 | 37.43149 | -4.02980 | 34337 ft | 480 kts | 18° |
| 2026-05-06 10:52 | 37.46205 | -4.01278 | 34634 ft | 481 kts | 18° |
| 2026-05-06 10:53 | 37.49263 | -3.99575 | 34948 ft | 481 kts | 18° |
| 2026-05-06 10:53 | 37.52283 | -3.97893 | 35264 ft | 481 kts | 18° |
| 2026-05-06 10:53 | 37.55342 | -3.96188 | 35589 ft | 480 kts | 18° |
| 2026-05-06 10:53 | 37.58395 | -3.94485 | 35870 ft | 481 kts | 18° |
| 2026-05-06 10:54 | 37.61460 | -3.92774 | 35947 ft | 484 kts | 18° |
| 2026-05-06 10:54 | 37.67662 | -3.89315 | 35954 ft | 488 kts | 18° |
| 2026-05-06 10:55 | 37.73866 | -3.85835 | 35954 ft | 488 kts | 18° |
| 2026-05-06 10:55 | 37.80032 | -3.82374 | 35954 ft | 487 kts | 18° |
| 2026-05-06 10:56 | 37.86236 | -3.78891 | 35956 ft | 488 kts | 18° |
| 2026-05-06 10:56 | 37.92441 | -3.75403 | 35983 ft | 488 kts | 18° |
| 2026-05-06 10:57 | 37.98642 | -3.71897 | 35975 ft | 488 kts | 18° |
| 2026-05-06 10:57 | 38.04802 | -3.68403 | 35974 ft | 488 kts | 18° |
| 2026-05-06 10:58 | 38.11001 | -3.64892 | 35971 ft | 488 kts | 18° |
| 2026-05-06 10:58 | 38.17391 | -3.62369 | 35994 ft | 473 kts | 1° |
| 2026-05-06 10:59 | 38.23887 | -3.61643 | 35981 ft | 468 kts | 357° |
| 2026-05-06 10:59 | 38.30392 | -3.61023 | 35974 ft | 469 kts | 357° |
| 2026-05-06 11:00 | 38.36855 | -3.60394 | 35970 ft | 469 kts | 357° |
| 2026-05-06 11:00 | 38.43361 | -3.59761 | 35966 ft | 469 kts | 357° |
| 2026-05-06 11:01 | 38.49869 | -3.59132 | 35969 ft | 469 kts | 357° |
| 2026-05-06 11:01 | 38.56377 | -3.58498 | 35967 ft | 469 kts | 357° |
| 2026-05-06 11:02 | 38.62883 | -3.57866 | 35984 ft | 469 kts | 357° |
| 2026-05-06 11:02 | 38.69400 | -3.57231 | 35975 ft | 469 kts | 357° |
| 2026-05-06 11:03 | 38.75921 | -3.56595 | 35978 ft | 470 kts | 357° |
| 2026-05-06 11:03 | 38.81332 | -3.56057 | 35978 ft | 470 kts | 357° |
| 2026-05-06 11:04 | 38.87862 | -3.55410 | 35999 ft | 470 kts | 358° |
| 2026-05-06 11:04 | 38.95433 | -3.54662 | 35993 ft | 470 kts | 357° |
| 2026-05-06 11:05 | 39.00899 | -3.54126 | 35987 ft | 469 kts | 357° |
| 2026-05-06 11:05 | 39.07376 | -3.53493 | 35998 ft | 469 kts | 358° |
| 2026-05-06 11:06 | 39.13884 | -3.52852 | 36000 ft | 469 kts | 358° |
| 2026-05-06 11:06 | 39.20384 | -3.52199 | 35997 ft | 468 kts | 358° |
| 2026-05-06 11:07 | 39.26844 | -3.51545 | 35995 ft | 468 kts | 358° |
| 2026-05-06 11:07 | 39.33335 | -3.50896 | 35996 ft | 467 kts | 358° |
| 2026-05-06 11:08 | 39.39810 | -3.50258 | 35991 ft | 466 kts | 358° |
| 2026-05-06 11:08 | 39.46279 | -3.49601 | 35992 ft | 466 kts | 358° |
| 2026-05-06 11:09 | 39.52753 | -3.48944 | 36024 ft | 466 kts | 358° |
| 2026-05-06 11:09 | 39.59215 | -3.48297 | 36013 ft | 465 kts | 358° |
| 2026-05-06 11:10 | 39.65670 | -3.47644 | 36013 ft | 465 kts | 358° |
| 2026-05-06 11:10 | 39.72121 | -3.47001 | 36016 ft | 464 kts | 358° |
| 2026-05-06 11:11 | 39.78516 | -3.46344 | 36023 ft | 465 kts | 360° |
| 2026-05-06 11:11 | 39.84949 | -3.45269 | 36016 ft | 467 kts | 3° |
| 2026-05-06 11:12 | 39.91361 | -3.43850 | 36012 ft | 467 kts | 4° |
| 2026-05-06 11:12 | 39.97771 | -3.42445 | 36006 ft | 467 kts | 3° |
| 2026-05-06 11:13 | 40.04182 | -3.41141 | 36029 ft | 466 kts | 3° |
| 2026-05-06 11:13 | 40.10553 | -3.39892 | 36027 ft | 465 kts | 3° |
| 2026-05-06 11:14 | 40.16960 | -3.38620 | 36021 ft | 465 kts | 3° |
| 2026-05-06 11:14 | 40.23364 | -3.37332 | 36031 ft | 465 kts | 3° |
| 2026-05-06 11:15 | 40.29760 | -3.36031 | 36025 ft | 465 kts | 3° |
| 2026-05-06 11:15 | 40.36156 | -3.34733 | 36021 ft | 465 kts | 3° |
| 2026-05-06 11:16 | 40.42522 | -3.33446 | 36017 ft | 465 kts | 3° |
| 2026-05-06 11:16 | 40.48905 | -3.32144 | 36034 ft | 464 kts | 3° |
| 2026-05-06 11:17 | 40.55292 | -3.30840 | 36023 ft | 463 kts | 4° |
| 2026-05-06 11:17 | 40.61666 | -3.29536 | 36023 ft | 463 kts | 3° |
| 2026-05-06 11:18 | 40.68029 | -3.28237 | 36019 ft | 463 kts | 3° |
| 2026-05-06 11:18 | 40.74356 | -3.26945 | 36018 ft | 463 kts | 3° |
| 2026-05-06 11:19 | 40.80725 | -3.25631 | 36012 ft | 463 kts | 4° |
| 2026-05-06 11:19 | 40.87095 | -3.24313 | 36031 ft | 463 kts | 4° |
| 2026-05-06 11:20 | 40.93451 | -3.22915 | 36025 ft | 463 kts | 5° |
| 2026-05-06 11:20 | 40.99761 | -3.21471 | 36019 ft | 462 kts | 5° |
| 2026-05-06 11:21 | 41.06108 | -3.20032 | 36020 ft | 462 kts | 5° |
| 2026-05-06 11:21 | 41.12443 | -3.18613 | 36034 ft | 462 kts | 5° |
| 2026-05-06 11:22 | 41.18779 | -3.17187 | 36026 ft | 461 kts | 5° |
| 2026-05-06 11:22 | 41.25067 | -3.15765 | 36024 ft | 461 kts | 5° |
| 2026-05-06 11:23 | 41.31385 | -3.14340 | 36031 ft | 460 kts | 5° |
| 2026-05-06 11:23 | 41.37703 | -3.12906 | 36027 ft | 460 kts | 5° |
| 2026-05-06 11:24 | 41.44011 | -3.11472 | 36027 ft | 459 kts | 5° |
| 2026-05-06 11:24 | 41.50315 | -3.10038 | 36024 ft | 459 kts | 5° |
| 2026-05-06 11:25 | 41.56611 | -3.08608 | 36039 ft | 459 kts | 5° |
| 2026-05-06 11:25 | 41.62861 | -3.07198 | 36032 ft | 458 kts | 5° |
| 2026-05-06 11:26 | 41.69138 | -3.05766 | 36027 ft | 458 kts | 5° |
| 2026-05-06 11:26 | 41.75420 | -3.04324 | 36031 ft | 458 kts | 5° |
| 2026-05-06 11:27 | 41.81695 | -3.02882 | 36024 ft | 458 kts | 5° |
| 2026-05-06 11:27 | 41.87976 | -3.01442 | 36013 ft | 458 kts | 5° |
| 2026-05-06 11:28 | 41.94217 | -2.99994 | 36012 ft | 458 kts | 5° |
| 2026-05-06 11:28 | 42.00496 | -2.98535 | 36026 ft | 458 kts | 5° |
| 2026-05-06 11:29 | 42.06775 | -2.97079 | 36020 ft | 457 kts | 5° |
| 2026-05-06 11:29 | 42.13046 | -2.95621 | 36019 ft | 457 kts | 5° |
| 2026-05-06 11:30 | 42.19308 | -2.94173 | 36029 ft | 457 kts | 5° |
| 2026-05-06 11:30 | 42.25569 | -2.92715 | 36027 ft | 456 kts | 5° |
| 2026-05-06 11:31 | 42.31789 | -2.91257 | 36026 ft | 456 kts | 5° |
| 2026-05-06 11:31 | 42.38050 | -2.89789 | 36049 ft | 456 kts | 6° |
| 2026-05-06 11:32 | 42.44295 | -2.88361 | 36045 ft | 453 kts | 2° |
| 2026-05-06 11:32 | 42.50537 | -2.88331 | 36046 ft | 447 kts | 353° |
| 2026-05-06 11:33 | 42.56765 | -2.88667 | 36039 ft | 447 kts | 353° |
| 2026-05-06 11:33 | 42.62951 | -2.88993 | 36055 ft | 447 kts | 354° |
| 2026-05-06 11:34 | 42.69161 | -2.89318 | 36054 ft | 447 kts | 354° |
| 2026-05-06 11:34 | 42.75374 | -2.89636 | 36055 ft | 446 kts | 354° |
| 2026-05-06 11:35 | 42.81579 | -2.89956 | 36052 ft | 446 kts | 354° |
| 2026-05-06 11:35 | 42.87785 | -2.90275 | 36053 ft | 446 kts | 354° |
| 2026-05-06 11:36 | 42.93986 | -2.90605 | 36053 ft | 446 kts | 354° |
| 2026-05-06 11:36 | 43.00189 | -2.90942 | 36082 ft | 446 kts | 354° |
| 2026-05-06 11:37 | 43.06387 | -2.91264 | 36075 ft | 446 kts | 354° |
| 2026-05-06 11:37 | 43.12545 | -2.91591 | 36075 ft | 445 kts | 354° |
| 2026-05-06 11:38 | 43.18745 | -2.91927 | 36076 ft | 445 kts | 354° |
| 2026-05-06 11:38 | 43.24937 | -2.92255 | 36084 ft | 445 kts | 354° |
| 2026-05-06 11:39 | 43.31107 | -2.92794 | 36077 ft | 442 kts | 347° |
| 2026-05-06 11:39 | 43.37096 | -2.94624 | 36076 ft | 440 kts | 344° |
| 2026-05-06 11:40 | 43.43033 | -2.96473 | 36083 ft | 440 kts | 345° |
| 2026-05-06 11:40 | 43.49004 | -2.98327 | 36078 ft | 440 kts | 345° |
| 2026-05-06 11:41 | 43.54976 | -3.00195 | 36069 ft | 440 kts | 344° |
| 2026-05-06 11:41 | 43.60941 | -3.02067 | 36075 ft | 440 kts | 345° |
| 2026-05-06 11:42 | 43.66659 | -3.03862 | 36059 ft | 440 kts | 345° |
| 2026-05-06 11:42 | 43.72647 | -3.05705 | 36053 ft | 440 kts | 346° |
| 2026-05-06 11:43 | 43.78614 | -3.07401 | 36054 ft | 440 kts | 346° |
| 2026-05-06 11:43 | 43.84617 | -3.09086 | 36054 ft | 440 kts | 346° |
| 2026-05-06 11:44 | 43.93621 | -3.11677 | 36042 ft | 440 kts | 346° |
| 2026-05-06 11:44 | 43.99631 | -3.13424 | 36052 ft | 441 kts | 346° |
| 2026-05-06 11:45 | 44.05648 | -3.14814 | 36045 ft | 443 kts | 356° |
| 2026-05-06 11:45 | 44.11816 | -3.14350 | 36040 ft | 444 kts | 2° |
| 2026-05-06 11:46 | 44.17979 | -3.13705 | 36038 ft | 444 kts | 2° |
| 2026-05-06 11:46 | 44.24139 | -3.13070 | 36040 ft | 444 kts | 2° |
| 2026-05-06 11:47 | 44.30304 | -3.12435 | 36036 ft | 444 kts | 2° |
| 2026-05-06 11:47 | 44.36464 | -3.11792 | 36033 ft | 444 kts | 2° |
| 2026-05-06 11:48 | 44.42624 | -3.11150 | 36035 ft | 444 kts | 2° |
| 2026-05-06 11:48 | 44.48781 | -3.10513 | 36032 ft | 443 kts | 2° |
| 2026-05-06 11:49 | 44.54933 | -3.09878 | 36027 ft | 443 kts | 2° |
| 2026-05-06 11:49 | 44.61039 | -3.09238 | 36031 ft | 443 kts | 2° |
| 2026-05-06 11:50 | 44.67187 | -3.08596 | 36024 ft | 442 kts | 2° |
| 2026-05-06 11:50 | 44.73329 | -3.07945 | 36030 ft | 442 kts | 3° |
| 2026-05-06 11:51 | 44.79479 | -3.07300 | 36029 ft | 442 kts | 2° |
| 2026-05-06 11:51 | 44.85615 | -3.06648 | 36028 ft | 442 kts | 2° |
| 2026-05-06 11:52 | 44.91717 | -3.05998 | 36028 ft | 443 kts | 2° |
| 2026-05-06 11:52 | 44.97867 | -3.05341 | 36024 ft | 442 kts | 2° |
| 2026-05-06 11:53 | 45.04003 | -3.04692 | 36019 ft | 442 kts | 2° |
| 2026-05-06 11:53 | 45.10143 | -3.04041 | 36016 ft | 442 kts | 2° |
| 2026-05-06 11:54 | 45.16276 | -3.03384 | 36025 ft | 442 kts | 3° |
| 2026-05-06 11:54 | 45.22404 | -3.02732 | 36025 ft | 441 kts | 2° |
| 2026-05-06 11:55 | 45.28486 | -3.02087 | 36022 ft | 441 kts | 3° |
| 2026-05-06 11:55 | 45.34451 | -3.00082 | 36012 ft | 444 kts | 21° |
| 2026-05-06 11:56 | 45.40111 | -2.96547 | 36019 ft | 444 kts | 22° |
| 2026-05-06 11:56 | 45.45785 | -2.92997 | 36010 ft | 444 kts | 22° |
| 2026-05-06 11:57 | 45.51451 | -2.89467 | 36011 ft | 445 kts | 22° |
| 2026-05-06 11:57 | 45.57121 | -2.85918 | 36015 ft | 445 kts | 22° |
| 2026-05-06 11:58 | 45.62743 | -2.82379 | 36013 ft | 445 kts | 22° |
| 2026-05-06 11:58 | 45.68408 | -2.78802 | 36007 ft | 445 kts | 22° |
| 2026-05-06 11:59 | 45.74076 | -2.75226 | 36008 ft | 445 kts | 22° |
| 2026-05-06 11:59 | 45.79737 | -2.71637 | 36016 ft | 444 kts | 22° |
| 2026-05-06 12:00 | 45.85362 | -2.68083 | 36013 ft | 444 kts | 22° |
| 2026-05-06 12:00 | 45.91008 | -2.64510 | 36015 ft | 443 kts | 22° |
| 2026-05-06 12:01 | 45.96648 | -2.60919 | 36015 ft | 443 kts | 22° |
| 2026-05-06 12:01 | 46.02278 | -2.57308 | 36007 ft | 443 kts | 22° |
| 2026-05-06 12:02 | 46.07916 | -2.53700 | 35999 ft | 443 kts | 22° |
| 2026-05-06 12:02 | 46.12593 | -2.50708 | 35998 ft | 443 kts | 22° |
| 2026-05-06 12:03 | 46.19333 | -2.47349 | 35998 ft | 440 kts | 8° |
| 2026-05-06 12:03 | 46.24385 | -2.46515 | 35992 ft | 440 kts | 5° |
| 2026-05-06 12:04 | 46.30469 | -2.45543 | 35994 ft | 440 kts | 5° |
| 2026-05-06 12:04 | 46.36560 | -2.44553 | 35996 ft | 440 kts | 5° |
| 2026-05-06 12:05 | 46.42648 | -2.43567 | 35994 ft | 440 kts | 5° |
| 2026-05-06 12:05 | 46.48707 | -2.42230 | 35991 ft | 442 kts | 15° |
| 2026-05-06 12:06 | 46.54307 | -2.38555 | 35997 ft | 443 kts | 28° |
| 2026-05-06 12:06 | 46.59631 | -2.34140 | 35996 ft | 444 kts | 28° |
| 2026-05-06 12:07 | 46.65002 | -2.29698 | 35992 ft | 444 kts | 28° |
| 2026-05-06 12:07 | 46.70375 | -2.25259 | 35993 ft | 444 kts | 28° |
| 2026-05-06 12:08 | 46.75748 | -2.20793 | 35993 ft | 444 kts | 28° |
| 2026-05-06 12:08 | 46.81117 | -2.16314 | 35993 ft | 444 kts | 28° |
| 2026-05-06 12:09 | 46.86444 | -2.11855 | 35989 ft | 444 kts | 28° |
| 2026-05-06 12:09 | 46.91834 | -2.07454 | 35987 ft | 443 kts | 26° |
| 2026-05-06 12:10 | 46.97379 | -2.03523 | 35999 ft | 443 kts | 24° |
| 2026-05-06 12:10 | 47.03214 | -2.00781 | 35996 ft | 440 kts | 8° |
| 2026-05-06 12:11 | 47.09268 | -1.99355 | 35990 ft | 441 kts | 8° |
| 2026-05-06 12:11 | 47.15309 | -1.97810 | 35988 ft | 441 kts | 9° |
| 2026-05-06 12:12 | 47.21328 | -1.96278 | 35993 ft | 441 kts | 9° |
| 2026-05-06 12:12 | 47.27379 | -1.94766 | 35987 ft | 441 kts | 9° |
| 2026-05-06 12:13 | 47.33441 | -1.93290 | 35989 ft | 441 kts | 5° |
| 2026-05-06 12:13 | 47.39563 | -1.93392 | 35988 ft | 440 kts | 355° |
| 2026-05-06 12:14 | 47.45635 | -1.94042 | 35986 ft | 440 kts | 355° |
| 2026-05-06 12:14 | 47.51751 | -1.94690 | 35986 ft | 441 kts | 355° |
| 2026-05-06 12:15 | 47.57869 | -1.95339 | 35992 ft | 441 kts | 355° |
| 2026-05-06 12:15 | 47.64004 | -1.95458 | 35984 ft | 442 kts | 6° |
| 2026-05-06 12:16 | 47.69948 | -1.93100 | 35983 ft | 443 kts | 18° |
| 2026-05-06 12:16 | 47.75759 | -1.90131 | 35984 ft | 444 kts | 18° |
| 2026-05-06 12:17 | 47.81608 | -1.87157 | 35984 ft | 444 kts | 18° |
| 2026-05-06 12:17 | 47.87462 | -1.84177 | 35985 ft | 445 kts | 18° |
| 2026-05-06 12:18 | 47.93326 | -1.81166 | 35982 ft | 445 kts | 18° |
| 2026-05-06 12:18 | 47.99147 | -1.78173 | 35990 ft | 445 kts | 18° |
| 2026-05-06 12:19 | 48.05026 | -1.75225 | 35985 ft | 445 kts | 13° |
| 2026-05-06 12:19 | 48.11148 | -1.74226 | 35986 ft | 442 kts | 358° |
| 2026-05-06 12:20 | 48.17308 | -1.74322 | 35979 ft | 443 kts | 359° |
| 2026-05-06 12:20 | 48.23475 | -1.74388 | 35983 ft | 443 kts | 359° |
| 2026-05-06 12:21 | 48.29645 | -1.74431 | 35982 ft | 443 kts | 359° |
| 2026-05-06 12:21 | 48.35810 | -1.74361 | 35983 ft | 443 kts | 360° |
| 2026-05-06 12:22 | 48.41944 | -1.74246 | 35985 ft | 443 kts | 360° |
| 2026-05-06 12:22 | 48.48112 | -1.74144 | 35996 ft | 443 kts | 360° |
| 2026-05-06 12:23 | 48.54281 | -1.74049 | 35988 ft | 443 kts | 360° |
| 2026-05-06 12:23 | 48.60444 | -1.73966 | 35992 ft | 443 kts | 360° |
| 2026-05-06 12:24 | 48.66607 | -1.73889 | 35991 ft | 443 kts | 360° |
| 2026-05-06 12:24 | 48.72780 | -1.73802 | 35998 ft | 443 kts | 359° |
| 2026-05-06 12:25 | 48.78946 | -1.73721 | 35988 ft | 443 kts | 359° |
| 2026-05-06 12:25 | 48.85116 | -1.73638 | 35988 ft | 443 kts | 360° |
| 2026-05-06 12:26 | 48.91284 | -1.73547 | 35991 ft | 444 kts | 359° |
| 2026-05-06 12:26 | 48.97461 | -1.73464 | 35995 ft | 444 kts | 359° |
| 2026-05-06 12:27 | 49.03598 | -1.73362 | 35995 ft | 444 kts | 359° |
| 2026-05-06 12:27 | 49.09774 | -1.73263 | 36003 ft | 444 kts | 359° |
| 2026-05-06 12:28 | 49.15954 | -1.73177 | 35999 ft | 444 kts | 360° |
| 2026-05-06 12:28 | 49.22090 | -1.73091 | 36004 ft | 443 kts | 359° |
| 2026-05-06 12:29 | 49.28255 | -1.73006 | 36010 ft | 443 kts | 359° |
| 2026-05-06 12:29 | 49.34417 | -1.72920 | 36017 ft | 442 kts | 359° |
| 2026-05-06 12:30 | 49.40571 | -1.72835 | 36007 ft | 442 kts | 359° |
| 2026-05-06 12:30 | 49.46726 | -1.72740 | 36015 ft | 442 kts | 360° |
| 2026-05-06 12:31 | 49.52875 | -1.72649 | 36021 ft | 442 kts | 359° |
| 2026-05-06 12:31 | 49.59027 | -1.72577 | 36015 ft | 442 kts | 359° |
| 2026-05-06 12:32 | 49.65176 | -1.72282 | 36013 ft | 442 kts | 2° |
| 2026-05-06 12:32 | 49.71276 | -1.71684 | 36014 ft | 442 kts | 2° |
| 2026-05-06 12:33 | 49.77428 | -1.71064 | 36015 ft | 443 kts | 2° |
| 2026-05-06 12:33 | 49.83585 | -1.70513 | 36015 ft | 443 kts | 2° |
| 2026-05-06 12:34 | 49.89746 | -1.70004 | 36017 ft | 443 kts | 2° |
| 2026-05-06 12:34 | 49.95869 | -1.69504 | 36022 ft | 443 kts | 2° |
| 2026-05-06 12:35 | 50.01980 | -1.68206 | 36012 ft | 446 kts | 15° |
| 2026-05-06 12:35 | 50.07917 | -1.65329 | 36011 ft | 447 kts | 16° |
| 2026-05-06 12:36 | 50.10884 | -1.63892 | 35745 ft | 447 kts | 16° |
| 2026-05-06 12:36 | 50.13891 | -1.62436 | 34678 ft | 456 kts | 16° |
| 2026-05-06 12:36 | 50.16936 | -1.60961 | 33735 ft | 458 kts | 16° |
| 2026-05-06 12:36 | 50.19979 | -1.59478 | 32720 ft | 459 kts | 16° |
| 2026-05-06 12:37 | 50.23033 | -1.57988 | 31773 ft | 459 kts | 16° |
| 2026-05-06 12:37 | 50.26040 | -1.56520 | 30927 ft | 459 kts | 16° |
| 2026-05-06 12:37 | 50.29086 | -1.55037 | 30143 ft | 456 kts | 16° |
| 2026-05-06 12:37 | 50.32117 | -1.53559 | 29355 ft | 453 kts | 16° |
| 2026-05-06 12:38 | 50.35110 | -1.52097 | 28617 ft | 448 kts | 16° |
| 2026-05-06 12:38 | 50.38077 | -1.50643 | 27911 ft | 444 kts | 16° |
| 2026-05-06 12:38 | 50.41017 | -1.49199 | 27221 ft | 440 kts | 16° |
| 2026-05-06 12:38 | 50.43887 | -1.47781 | 26547 ft | 436 kts | 16° |
| 2026-05-06 12:39 | 50.46766 | -1.46353 | 25895 ft | 432 kts | 16° |
| 2026-05-06 12:39 | 50.49625 | -1.44938 | 25260 ft | 428 kts | 16° |
| 2026-05-06 12:39 | 50.52452 | -1.43542 | 24636 ft | 425 kts | 17° |
| 2026-05-06 12:39 | 50.55164 | -1.41733 | 24037 ft | 423 kts | 27° |
| 2026-05-06 12:40 | 50.57741 | -1.39547 | 23413 ft | 420 kts | 27° |
| 2026-05-06 12:40 | 50.60301 | -1.37356 | 22744 ft | 416 kts | 27° |
| 2026-05-06 12:40 | 50.62828 | -1.35181 | 22137 ft | 413 kts | 27° |
| 2026-05-06 12:40 | 50.65338 | -1.33015 | 21548 ft | 409 kts | 27° |
| 2026-05-06 12:41 | 50.67824 | -1.30865 | 20976 ft | 406 kts | 27° |
| 2026-05-06 12:41 | 50.70294 | -1.28726 | 20452 ft | 403 kts | 27° |
| 2026-05-06 12:41 | 50.72742 | -1.26605 | 19956 ft | 400 kts | 27° |
| 2026-05-06 12:41 | 50.75171 | -1.24501 | 19471 ft | 397 kts | 27° |
| 2026-05-06 12:42 | 50.77561 | -1.22365 | 18976 ft | 394 kts | 29° |
| 2026-05-06 12:42 | 50.79858 | -1.20119 | 18486 ft | 391 kts | 31° |
| 2026-05-06 12:42 | 50.82125 | -1.17762 | 17946 ft | 388 kts | 32° |
| 2026-05-06 12:42 | 50.84357 | -1.15375 | 17375 ft | 385 kts | 33° |
| 2026-05-06 12:43 | 50.86562 | -1.13012 | 16825 ft | 381 kts | 32° |
| 2026-05-06 12:43 | 50.88751 | -1.10689 | 16270 ft | 378 kts | 32° |
| 2026-05-06 12:43 | 50.90935 | -1.08399 | 15712 ft | 374 kts | 31° |
| 2026-05-06 12:43 | 50.93100 | -1.06149 | 15157 ft | 370 kts | 31° |
| 2026-05-06 12:44 | 50.95247 | -1.03923 | 14618 ft | 367 kts | 31° |
| 2026-05-06 12:44 | 50.97376 | -1.01716 | 14085 ft | 363 kts | 31° |
| 2026-05-06 12:44 | 50.99480 | -0.99525 | 13588 ft | 359 kts | 33° |
| 2026-05-06 12:44 | 51.01337 | -0.96992 | 13437 ft | 347 kts | 45° |
| 2026-05-06 12:45 | 51.02917 | -0.94193 | 13304 ft | 333 kts | 46° |
| 2026-05-06 12:45 | 51.04411 | -0.91533 | 13165 ft | 321 kts | 46° |
| 2026-05-06 12:45 | 51.07284 | -0.86420 | 12903 ft | 300 kts | 46° |
| 2026-05-06 12:46 | 51.08649 | -0.83987 | 12770 ft | 290 kts | 45° |
| 2026-05-06 12:46 | 51.09972 | -0.81627 | 12637 ft | 281 kts | 46° |
| 2026-05-06 12:46 | 51.11253 | -0.79339 | 12508 ft | 273 kts | 46° |
| 2026-05-06 12:46 | 51.12496 | -0.77118 | 12368 ft | 265 kts | 45° |
| 2026-05-06 12:47 | 51.13714 | -0.74934 | 12135 ft | 262 kts | 46° |
| 2026-05-06 12:47 | 51.14921 | -0.72770 | 11872 ft | 260 kts | 45° |
| 2026-05-06 12:47 | 51.16123 | -0.70621 | 11601 ft | 259 kts | 45° |
| 2026-05-06 12:47 | 51.17318 | -0.68486 | 11323 ft | 258 kts | 45° |
| 2026-05-06 12:48 | 51.18509 | -0.66358 | 11052 ft | 256 kts | 45° |
| 2026-05-06 12:48 | 51.19691 | -0.64242 | 10786 ft | 255 kts | 45° |
| 2026-05-06 12:48 | 51.20866 | -0.62130 | 10512 ft | 254 kts | 46° |
| 2026-05-06 12:48 | 51.22019 | -0.60055 | 10250 ft | 253 kts | 45° |
| 2026-05-06 12:49 | 51.23179 | -0.57964 | 9995 ft | 251 kts | 45° |
| 2026-05-06 12:49 | 51.24331 | -0.55889 | 9710 ft | 250 kts | 46° |
| 2026-05-06 12:49 | 51.25482 | -0.53811 | 9415 ft | 249 kts | 45° |
| 2026-05-06 12:49 | 51.26623 | -0.51748 | 9135 ft | 247 kts | 45° |
| 2026-05-06 12:50 | 51.27760 | -0.49691 | 8826 ft | 246 kts | 45° |
| 2026-05-06 12:50 | 51.28888 | -0.47648 | 8558 ft | 245 kts | 45° |
| 2026-05-06 12:50 | 51.30007 | -0.45608 | 8282 ft | 243 kts | 47° |
| 2026-05-06 12:50 | 51.30780 | -0.43209 | 7992 ft | 248 kts | 74° |
| 2026-05-06 12:51 | 51.31045 | -0.40475 | 7668 ft | 249 kts | 80° |
| 2026-05-06 12:51 | 51.31218 | -0.37718 | 7371 ft | 249 kts | 81° |
| 2026-05-06 12:51 | 51.31377 | -0.34969 | 7082 ft | 248 kts | 81° |
| 2026-05-06 12:51 | 51.31616 | -0.32275 | 6968 ft | 242 kts | 66° |
| 2026-05-06 12:52 | 51.32530 | -0.30108 | 6977 ft | 234 kts | 34° |
| 2026-05-06 12:52 | 51.33949 | -0.29104 | 7008 ft | 227 kts | 4° |
| 2026-05-06 12:52 | 51.35479 | -0.29507 | 6999 ft | 224 kts | 332° |
| 2026-05-06 12:52 | 51.36606 | -0.31212 | 6997 ft | 228 kts | 300° |
| 2026-05-06 12:53 | 51.36970 | -0.33674 | 6999 ft | 235 kts | 270° |
| 2026-05-06 12:53 | 51.36731 | -0.36305 | 7001 ft | 239 kts | 262° |
| 2026-05-06 12:53 | 51.36389 | -0.38919 | 7001 ft | 240 kts | 261° |
| 2026-05-06 12:53 | 51.36031 | -0.41527 | 7001 ft | 240 kts | 261° |
| 2026-05-06 12:54 | 51.35822 | -0.44155 | 7000 ft | 236 kts | 276° |
| 2026-05-06 12:54 | 51.35968 | -0.46727 | 7001 ft | 234 kts | 281° |
| 2026-05-06 12:54 | 51.36174 | -0.49309 | 7000 ft | 234 kts | 281° |
| 2026-05-06 12:54 | 51.36388 | -0.51893 | 7001 ft | 234 kts | 281° |
| 2026-05-06 12:55 | 51.36600 | -0.54476 | 6999 ft | 234 kts | 281° |
| 2026-05-06 12:55 | 51.36812 | -0.57047 | 6761 ft | 232 kts | 281° |
| 2026-05-06 12:55 | 51.37026 | -0.59605 | 6477 ft | 232 kts | 281° |
| 2026-05-06 12:55 | 51.37234 | -0.62160 | 6168 ft | 231 kts | 281° |
| 2026-05-06 12:56 | 51.37436 | -0.64705 | 5886 ft | 231 kts | 281° |
| 2026-05-06 12:56 | 51.37637 | -0.67246 | 5620 ft | 230 kts | 281° |
| 2026-05-06 12:56 | 51.37843 | -0.69784 | 5365 ft | 231 kts | 281° |
| 2026-05-06 12:56 | 51.38054 | -0.72323 | 5107 ft | 229 kts | 281° |
| 2026-05-06 12:57 | 51.38264 | -0.74854 | 4915 ft | 230 kts | 281° |
| 2026-05-06 12:57 | 51.38476 | -0.77388 | 4744 ft | 230 kts | 281° |
| 2026-05-06 12:57 | 51.38691 | -0.79930 | 4584 ft | 230 kts | 282° |
| 2026-05-06 12:57 | 51.39200 | -0.82281 | 4418 ft | 220 kts | 310° |
| 2026-05-06 12:58 | 51.40356 | -0.83682 | 4334 ft | 204 kts | 345° |
| 2026-05-06 12:58 | 51.41698 | -0.83965 | 4263 ft | 192 kts | 359° |
| 2026-05-06 12:58 | 51.42993 | -0.83976 | 4201 ft | 180 kts | 1° |
| 2026-05-06 12:58 | 51.44227 | -0.83955 | 4103 ft | 175 kts | 1° |
| 2026-05-06 12:59 | 51.45375 | -0.83451 | 3954 ft | 176 kts | 34° |
| 2026-05-06 12:59 | 51.46132 | -0.81893 | 3836 ft | 181 kts | 58° |
| 2026-05-06 12:59 | 51.46708 | -0.80096 | 3692 ft | 181 kts | 60° |
| 2026-05-06 12:59 | 51.47252 | -0.78272 | 3574 ft | 181 kts | 61° |
| 2026-05-06 13:00 | 51.47604 | -0.76388 | 3483 ft | 176 kts | 83° |
| 2026-05-06 13:00 | 51.47618 | -0.74450 | 3310 ft | 172 kts | 85° |
| 2026-05-06 13:00 | 51.47626 | -0.72577 | 3100 ft | 169 kts | 84° |
| 2026-05-06 13:00 | 51.47637 | -0.70692 | 2877 ft | 169 kts | 85° |
| 2026-05-06 13:01 | 51.47648 | -0.68802 | 2651 ft | 170 kts | 85° |
| 2026-05-06 13:01 | 51.47658 | -0.66902 | 2414 ft | 170 kts | 85° |
| 2026-05-06 13:01 | 51.47669 | -0.65021 | 2184 ft | 168 kts | 85° |
| 2026-05-06 13:01 | 51.47679 | -0.63160 | 1953 ft | 165 kts | 84° |
| 2026-05-06 13:02 | 51.47688 | -0.61321 | 1732 ft | 164 kts | 85° |
| 2026-05-06 13:02 | 51.47698 | -0.59493 | 1499 ft | 163 kts | 84° |
| 2026-05-06 13:02 | 51.47706 | -0.57688 | 1272 ft | 157 kts | 84° |
| 2026-05-06 13:02 | 51.47710 | -0.56570 | 1154 ft | 146 kts | 85° |
| 2026-05-06 13:03 | 51.47718 | -0.54992 | 941 ft | 139 kts | 85° |
| 2026-05-06 13:03 | 51.47725 | -0.53462 | 753 ft | 135 kts | 84° |
| 2026-05-06 13:03 | 51.47731 | -0.51976 | 556 ft | 132 kts | 85° |
| 2026-05-06 13:03 | 51.47732 | -0.50529 | 370 ft | 128 kts | 84° |
| 2026-05-06 13:04 | 51.47743 | -0.49092 | 213 ft | 129 kts | 84° |
| 2026-05-06 13:04 | 51.47753 | -0.47657 | 86 ft | 124 kts | 87° |
| 2026-05-06 13:04 | 51.47758 | -0.46635 | 91 ft | 54 kts | 90° |
| 2026-05-06 13:04 | 51.47758 | -0.46279 | 89 ft | 20 kts | 90° |
| 2026-05-06 13:05 | 51.47681 | -0.46119 | 88 ft | 14 kts | 144° |
| 2026-05-06 13:05 | 51.47624 | -0.46059 | 90 ft | 7 kts | 156° |
| 2026-05-06 13:05 | 51.47619 | -0.46057 | 89 ft | 0 kts | 162° |
| 2026-05-06 13:06 | 51.47617 | -0.46056 | 88 ft | 1 kts | 160° |
| 2026-05-06 13:06 | 51.47598 | -0.46014 | 88 ft | 8 kts | 109° |
| 2026-05-06 13:06 | 51.47594 | -0.45905 | 88 ft | 11 kts | 90° |
| 2026-05-06 13:07 | 51.47590 | -0.45775 | 86 ft | 12 kts | 111° |
| 2026-05-06 13:07 | 51.47526 | -0.45764 | 88 ft | 9 kts | 229° |
| 2026-05-06 13:07 | 51.47518 | -0.45846 | 86 ft | 6 kts | 269° |
| 2026-05-06 13:07 | 51.47517 | -0.45890 | 86 ft | 3 kts | 269° |
| 2026-05-06 13:08 | 51.47517 | -0.45928 | 86 ft | 0 kts | 270° |
| 2026-05-06 13:14 | 51.47517 | -0.45932 | 86 ft | 1 kts | 270° |
| 2026-05-06 13:14 | 51.47517 | -0.45962 | 86 ft | 4 kts | 271° |
| 2026-05-06 13:15 | 51.47518 | -0.46028 | 86 ft | 7 kts | 269° |
| 2026-05-06 13:15 | 51.47517 | -0.46126 | 86 ft | 10 kts | 270° |
| 2026-05-06 13:15 | 51.47517 | -0.46245 | 86 ft | 11 kts | 269° |
| 2026-05-06 13:15 | 51.47516 | -0.46370 | 86 ft | 10 kts | 263° |
| 2026-05-06 13:16 | 51.47467 | -0.46411 | 88 ft | 9 kts | 181° |
| 2026-05-06 13:16 | 51.47432 | -0.46411 | 86 ft | 3 kts | 180° |
| 2026-05-06 13:16 | 51.47428 | -0.46411 | 86 ft | 0 kts | 180° |